Big Springs, South Dakota
Current Conditions -  °F | °C
As of 12:15 PM on Sunday 25 Jan 2015 (Local Time) from KLRJ Reporting Station
Overcast Overcast  
Wind Chill: 29°   Ceiling: 900
Heat Index: 36°   Visibility: 10mi
Dew Point: 34°   Wind: 9mph
Humidity: 93%   Direction: 10°N
Pressure: 30.02"   Gusts: NA
Location:  42.9925°N, 96.6362°W
Report Text: KLRJ 251815Z AUTO 01008KT 10SM OVC009 02/01 A3002 RMK AO2
Loading
Personal Weather Stations






























Interactive Weather Map New forecast layout! Learn more

10-Day Weather Forecast

Advertisements
Track Severe Weather on mobile